createdAt,value
2022-10-23T00:01:43.857Z,86.46
2022-10-23T00:04:21.571Z,86.00
2022-10-23T00:06:49.519Z,86.24
2022-10-23T00:09:20.244Z,86.51
2022-10-23T00:11:50.039Z,86.65
2022-10-23T00:14:21.444Z,87.47
2022-10-23T00:16:48.552Z,87.44
2022-10-23T00:19:16.224Z,88.02
2022-10-23T00:21:43.480Z,87.94
2022-10-23T00:24:10.716Z,88.05
2022-10-23T00:26:40.569Z,87.82
2022-10-23T00:29:09.815Z,88.29
2022-10-23T00:31:38.105Z,88.13
2022-10-23T00:34:08.492Z,87.63
2022-10-23T00:36:36.979Z,88.13
2022-10-23T00:39:05.692Z,88.37
2022-10-23T00:41:32.992Z,88.83
2022-10-23T00:44:30.832Z,87.76
2022-10-23T00:46:59.299Z,87.74
2022-10-23T00:49:28.351Z,87.77
2022-10-23T00:52:04.584Z,88.05
2022-10-23T00:54:43.560Z,88.35
2022-10-23T00:57:15.581Z,89.09
2022-10-23T00:59:42.968Z,89.22
2022-10-23T01:02:10.513Z,89.31
2022-10-23T01:04:38.123Z,90.05
2022-10-23T01:07:30.736Z,88.95
2022-10-23T01:10:07.909Z,88.81
2022-10-23T01:13:21.070Z,87.75
2022-10-23T01:16:06.065Z,88.47
2022-10-23T01:18:53.560Z,88.19
2022-10-23T01:21:48.110Z,88.90
2022-10-23T01:24:34.072Z,88.61
2022-10-23T01:27:13.167Z,87.53
2022-10-23T01:30:13.733Z,87.08
2022-10-23T01:33:06.923Z,86.21
2022-10-23T01:35:45.973Z,86.74
2022-10-23T01:38:57.655Z,86.68
2022-10-23T01:41:50.527Z,87.39
2022-10-23T01:44:37.967Z,88.85
2022-10-23T01:47:08.947Z,89.43
2022-10-23T01:49:39.578Z,89.11
2022-10-23T01:52:11.935Z,89.86
2022-10-23T01:54:44.137Z,88.92
2022-10-23T01:57:14.549Z,88.60
2022-10-23T02:00:07.031Z,89.93
2022-10-23T02:02:36.365Z,89.66
2022-10-23T02:05:14.190Z,89.02
2022-10-23T02:07:41.767Z,90.58
2022-10-23T02:10:10.696Z,89.56
2022-10-23T02:13:03.555Z,89.07
2022-10-23T02:15:41.049Z,89.14
2022-10-23T02:18:26.723Z,89.42
2022-10-23T02:21:14.029Z,90.13
2022-10-23T02:23:59.549Z,90.36
2022-10-23T02:26:47.057Z,90.75
2022-10-23T02:29:38.987Z,90.17
2022-10-23T02:32:09.937Z,91.91
2022-10-23T02:34:37.373Z,91.06
2022-10-23T02:37:04.620Z,91.03
2022-10-23T02:39:31.859Z,91.65
2022-10-23T02:42:36.433Z,92.08
2022-10-23T02:45:15.885Z,91.04
2022-10-23T02:48:19.067Z,91.22
2022-10-23T02:51:24.443Z,90.87
2022-10-23T02:54:05.475Z,91.20
2022-10-23T02:56:41.378Z,92.03
2022-10-23T02:59:52.574Z,91.31
2022-10-23T03:04:58.806Z,92.34
2022-10-23T03:07:27.134Z,91.60
2022-10-23T03:09:54.197Z,91.37
2022-10-23T03:12:21.287Z,91.72
2022-10-23T03:14:48.327Z,90.91
2022-10-23T03:17:15.449Z,91.17
2022-10-23T03:19:44.641Z,90.02
2022-10-23T03:22:11.698Z,90.60
2022-10-23T03:24:38.753Z,89.46
2022-10-23T03:27:08.225Z,89.17
2022-10-23T03:29:38.239Z,90.49
2022-10-23T03:32:05.640Z,89.79
2022-10-23T03:34:32.845Z,90.47
2022-10-23T03:36:59.893Z,91.50
2022-10-23T03:39:27.021Z,92.30
2022-10-23T03:41:54.100Z,91.58
2022-10-23T03:44:21.170Z,91.30
2022-10-23T03:46:48.286Z,91.80
2022-10-23T03:49:15.476Z,91.75
2022-10-23T03:51:44.061Z,90.83
2022-10-23T03:54:11.446Z,90.05
2022-10-23T03:56:38.478Z,90.94
2022-10-23T03:59:05.521Z,91.00
2022-10-23T04:01:32.977Z,91.04
2022-10-23T04:04:00.291Z,90.67
2022-10-23T04:06:27.348Z,90.30
2022-10-23T04:08:54.682Z,91.10
2022-10-23T04:11:21.743Z,91.14
2022-10-23T04:13:48.853Z,90.17
2022-10-23T04:16:17.202Z,90.80
2022-10-23T04:18:44.290Z,90.29
2022-10-23T04:21:12.041Z,90.19
2022-10-23T04:23:41.942Z,89.61
2022-10-23T04:26:11.910Z,89.43
2022-10-23T04:28:39.080Z,89.85
2022-10-23T04:31:07.141Z,90.69
2022-10-23T04:33:34.342Z,90.41
2022-10-23T04:36:04.052Z,90.11
2022-10-23T04:38:31.123Z,89.46
2022-10-23T04:40:58.204Z,90.09
2022-10-23T04:43:25.267Z,89.36
2022-10-23T04:45:52.432Z,89.89
2022-10-23T04:48:19.846Z,89.36
2022-10-23T04:50:59.353Z,90.13
2022-10-23T04:53:28.097Z,90.47
2022-10-23T04:55:57.742Z,90.56
2022-10-23T04:58:26.967Z,91.63
2022-10-23T05:00:54.384Z,90.66
2022-10-23T05:03:22.948Z,91.04
2022-10-23T05:05:54.542Z,90.29
2022-10-23T05:08:24.812Z,90.57
2022-10-23T05:10:52.059Z,90.10
2022-10-23T05:13:22.333Z,91.06
2022-10-23T05:15:51.975Z,91.12
2022-10-23T05:18:28.885Z,90.24
2022-10-23T05:21:10.261Z,89.98
2022-10-23T05:23:38.663Z,91.09
2022-10-23T05:26:05.774Z,91.65
2022-10-23T05:28:32.785Z,91.71
2022-10-23T05:31:03.782Z,91.68
2022-10-23T05:33:31.839Z,90.80
2022-10-23T05:36:00.362Z,91.26
2022-10-23T05:38:29.640Z,90.56
2022-10-23T05:40:56.687Z,90.58
2022-10-23T05:43:23.872Z,90.78
2022-10-23T05:45:50.900Z,91.72
2022-10-23T05:48:30.010Z,91.19
2022-10-23T05:51:11.010Z,90.51
2022-10-23T05:53:40.349Z,90.70
2022-10-23T05:56:09.821Z,90.55
2022-10-23T05:58:36.977Z,91.19
2022-10-23T06:01:13.685Z,90.16
2022-10-23T06:03:40.987Z,90.21
2022-10-23T06:06:08.471Z,90.65
2022-10-23T06:08:36.137Z,89.56
2022-10-23T06:11:15.223Z,89.07
2022-10-23T06:16:28.958Z,89.35
2022-10-23T06:18:57.486Z,89.73
2022-10-23T06:21:24.871Z,88.25
2022-10-23T06:23:52.245Z,89.84
2022-10-23T06:26:20.307Z,89.62
2022-10-23T06:28:47.388Z,89.47
2022-10-23T06:31:16.619Z,89.67
2022-10-23T06:33:43.646Z,89.09
2022-10-23T06:36:10.958Z,89.37
2022-10-23T06:38:40.888Z,88.80
2022-10-23T06:41:21.601Z,88.68
2022-10-23T06:43:51.115Z,89.01
2022-10-23T06:46:19.306Z,88.67
2022-10-23T06:48:46.848Z,88.79
2022-10-23T06:51:17.257Z,89.71
2022-10-23T06:53:46.030Z,89.76
2022-10-23T06:56:15.758Z,89.92
2022-10-23T06:58:42.899Z,89.31
2022-10-23T07:01:13.199Z,89.27
2022-10-23T07:03:40.398Z,89.43
2022-10-23T07:06:10.283Z,89.27
2022-10-23T07:08:38.333Z,89.60
2022-10-23T07:11:10.806Z,88.23
2022-10-23T07:13:39.334Z,88.85
2022-10-23T07:16:19.311Z,88.01
2022-10-23T07:18:48.454Z,88.55
2022-10-23T07:21:15.951Z,88.53
2022-10-23T07:23:43.016Z,88.21
2022-10-23T07:26:17.766Z,87.92
2022-10-23T07:28:48.121Z,87.93
2022-10-23T07:31:16.239Z,88.32
2022-10-23T07:33:43.395Z,88.78
2022-10-23T07:36:10.777Z,88.49
2022-10-23T07:38:37.885Z,87.99
2022-10-23T07:41:08.875Z,88.63
2022-10-23T07:43:39.385Z,88.78
2022-10-23T07:46:08.489Z,88.19
2022-10-23T07:48:37.900Z,87.47
2022-10-23T07:51:14.896Z,86.32
2022-10-23T07:53:42.973Z,86.72
2022-10-23T07:56:29.980Z,86.19
2022-10-23T07:58:59.990Z,85.75
2022-10-23T08:01:34.717Z,85.47
2022-10-23T08:04:01.842Z,84.77
2022-10-23T08:06:29.443Z,85.21
2022-10-23T08:08:56.491Z,86.30
2022-10-23T08:11:28.042Z,85.38
2022-10-23T08:13:57.078Z,84.95
2022-10-23T08:16:28.204Z,84.57
2022-10-23T08:18:55.248Z,84.48
2022-10-23T08:21:22.299Z,83.66
2022-10-23T08:23:49.358Z,83.29
2022-10-23T08:26:16.537Z,84.14
2022-10-23T08:28:43.618Z,82.70
2022-10-23T08:31:19.250Z,82.86
2022-10-23T08:33:46.941Z,82.32
2022-10-23T08:36:25.689Z,81.63
2022-10-23T08:38:55.235Z,82.48
2022-10-23T08:41:32.694Z,83.14
2022-10-23T08:44:31.553Z,82.31
2022-10-23T08:47:12.601Z,82.56
2022-10-23T08:49:44.365Z,81.59
2022-10-23T08:52:36.727Z,83.05
2022-10-23T08:55:45.085Z,82.59
2022-10-23T08:58:42.717Z,83.76
2022-10-23T09:01:46.477Z,83.58
2022-10-23T09:04:15.357Z,84.86
2022-10-23T09:06:48.089Z,84.61
2022-10-23T09:10:12.202Z,84.06
2022-10-23T09:12:39.895Z,84.39
2022-10-23T09:15:35.236Z,83.77
2022-10-23T09:18:17.409Z,83.32
2022-10-23T09:20:47.639Z,83.02
2022-10-23T09:23:23.332Z,81.93
2022-10-23T09:26:01.995Z,80.77
2022-10-23T09:28:36.308Z,80.17
2022-10-23T09:31:12.546Z,78.99
2022-10-23T09:33:43.509Z,78.86
2022-10-23T09:36:13.942Z,78.71
2022-10-23T09:38:46.683Z,78.05
2022-10-23T09:41:24.677Z,78.13
2022-10-23T09:44:21.154Z,78.13
2022-10-23T09:46:57.329Z,78.19
2022-10-23T09:49:30.716Z,78.99
2022-10-23T09:52:03.760Z,77.33
2022-10-23T09:54:39.808Z,75.64
2022-10-23T09:57:22.031Z,75.46
2022-10-23T09:59:56.550Z,74.77
2022-10-23T10:02:37.549Z,75.20
2022-10-23T10:05:34.063Z,75.14
2022-10-23T10:08:06.118Z,76.32
2022-10-23T10:10:37.238Z,75.52
2022-10-23T10:13:39.598Z,74.97
2022-10-23T10:16:07.770Z,76.15
2022-10-23T10:19:06.119Z,76.17
2022-10-23T10:21:54.100Z,76.56
2022-10-23T10:24:55.901Z,74.96
2022-10-23T10:28:02.388Z,76.65
2022-10-23T10:31:19.607Z,75.47
2022-10-23T10:34:37.589Z,75.44
2022-10-23T10:37:56.730Z,75.45
2022-10-23T10:40:51.865Z,75.78
2022-10-23T10:44:01.681Z,75.12
2022-10-23T10:47:03.385Z,74.68
2022-10-23T10:49:42.898Z,74.83
2022-10-23T10:52:57.331Z,74.61
2022-10-23T10:55:41.401Z,74.41
2022-10-23T10:59:07.063Z,73.18
2022-10-23T11:02:09.936Z,73.32
2022-10-23T11:04:51.233Z,74.37
2022-10-23T11:07:30.881Z,75.08
2022-10-23T11:10:00.371Z,76.35
2022-10-23T11:12:28.321Z,76.21
2022-10-23T11:14:56.632Z,76.03
2022-10-23T11:17:39.240Z,75.19
2022-10-23T11:20:09.572Z,74.92
2022-10-23T11:23:05.512Z,74.94
2022-10-23T11:25:59.984Z,74.08
2022-10-23T11:28:32.890Z,74.18
2022-10-23T11:32:00.312Z,74.21
2022-10-23T11:34:39.731Z,74.25
2022-10-23T11:37:09.099Z,73.54
2022-10-23T11:39:40.276Z,73.25
2022-10-23T11:42:07.225Z,74.53
2022-10-23T11:44:50.489Z,73.81
2022-10-23T11:47:40.581Z,73.64
2022-10-23T11:50:49.844Z,73.24
2022-10-23T11:53:45.603Z,72.61
2022-10-23T11:56:12.558Z,73.16
2022-10-23T11:58:50.720Z,71.76
2022-10-23T12:01:53.159Z,69.95
2022-10-23T12:04:39.520Z,68.80
2022-10-23T12:07:25.622Z,69.45
2022-10-23T12:10:00.781Z,69.58
2022-10-23T12:12:43.247Z,69.28
2022-10-23T12:15:15.803Z,69.03
2022-10-23T12:17:44.278Z,69.41
2022-10-23T12:20:11.571Z,69.94
2022-10-23T12:23:12.822Z,69.64
2022-10-23T12:26:12.800Z,68.38
2022-10-23T12:29:11.244Z,66.30
2022-10-23T12:31:55.147Z,66.77
2022-10-23T12:34:43.980Z,67.04
2022-10-23T12:37:56.005Z,67.55
2022-10-23T12:40:29.805Z,69.96
2022-10-23T12:43:00.243Z,68.51
2022-10-23T12:45:40.669Z,65.50
2022-10-23T12:48:19.958Z,65.76
2022-10-23T12:50:53.113Z,63.97
2022-10-23T12:53:24.394Z,63.34
2022-10-23T12:56:05.164Z,63.99
2022-10-23T12:58:35.213Z,63.69
2022-10-23T13:01:06.096Z,65.27
2022-10-23T13:03:34.338Z,65.00
2022-10-23T13:06:03.171Z,62.26
2022-10-23T13:08:45.994Z,62.44
2022-10-23T13:11:18.743Z,64.15
2022-10-23T13:13:46.149Z,65.31
2022-10-23T13:16:22.572Z,65.07
2022-10-23T13:18:50.182Z,66.65
2022-10-23T13:21:28.787Z,66.50
2022-10-23T13:23:56.448Z,66.50
2022-10-23T13:26:42.794Z,66.93
2022-10-23T13:29:33.696Z,64.56
2022-10-23T13:32:26.742Z,65.36
2022-10-23T13:35:04.049Z,66.52
2022-10-23T13:37:40.677Z,66.48
2022-10-23T13:40:24.997Z,64.76
2022-10-23T13:42:55.167Z,67.20
2022-10-23T13:45:25.782Z,65.27
2022-10-23T13:47:53.443Z,66.12
2022-10-23T13:50:23.067Z,66.95
2022-10-23T13:52:54.580Z,69.66
2022-10-23T13:55:28.330Z,67.66
2022-10-23T13:58:04.554Z,68.60
2022-10-23T14:00:31.662Z,68.82
2022-10-23T14:03:01.013Z,67.21
2022-10-23T14:05:28.062Z,68.96
2022-10-23T14:07:55.124Z,68.44
2022-10-23T14:10:25.645Z,70.68
2022-10-23T14:12:55.320Z,68.74
2022-10-23T14:15:22.964Z,68.83
2022-10-23T14:17:50.159Z,69.20
2022-10-23T14:20:19.121Z,69.22
2022-10-23T14:22:47.199Z,69.67
2022-10-23T14:25:14.477Z,71.78
2022-10-23T14:27:43.829Z,72.78
2022-10-23T14:30:11.646Z,74.27
2022-10-23T14:32:41.113Z,75.11
2022-10-23T14:35:10.933Z,75.45
2022-10-23T14:37:40.547Z,75.98
2022-10-23T14:40:08.565Z,76.51
2022-10-23T14:42:35.716Z,77.11
2022-10-23T14:45:08.561Z,77.65
2022-10-23T14:47:35.787Z,78.19
2022-10-23T14:50:03.160Z,78.42
2022-10-23T14:52:30.376Z,78.25
2022-10-23T14:54:57.541Z,78.34
2022-10-23T14:57:24.769Z,78.76
2022-10-23T14:59:51.847Z,78.42
2022-10-23T15:02:19.076Z,78.99
2022-10-23T15:04:46.173Z,78.69
2022-10-23T15:07:13.261Z,79.11
2022-10-23T15:09:40.348Z,79.72
2022-10-23T15:12:07.962Z,80.54
2022-10-23T15:14:35.493Z,80.29
2022-10-23T15:17:03.037Z,80.91
2022-10-23T15:19:30.266Z,81.13
2022-10-23T15:21:58.982Z,81.16
2022-10-23T15:24:26.787Z,81.20
2022-10-23T15:26:53.923Z,81.57
2022-10-23T15:29:21.293Z,82.77
2022-10-23T15:31:59.485Z,81.24
2022-10-23T15:34:29.431Z,81.99
2022-10-23T15:36:59.714Z,82.32
2022-10-23T15:39:33.877Z,82.03
2022-10-23T15:42:02.428Z,82.41
2022-10-23T15:44:31.891Z,82.15
2022-10-23T15:47:01.891Z,82.07
2022-10-23T15:49:29.672Z,82.15
2022-10-23T15:51:57.446Z,81.79
2022-10-23T15:54:27.012Z,81.78
2022-10-23T15:56:59.101Z,82.47
2022-10-23T15:59:26.538Z,83.20
2022-10-23T16:01:54.099Z,83.55
2022-10-23T16:04:21.531Z,83.04
2022-10-23T16:06:49.363Z,82.94
2022-10-23T16:09:17.139Z,81.50
2022-10-23T16:11:44.789Z,82.84
2022-10-23T16:14:17.477Z,82.87
2022-10-23T16:16:44.958Z,83.62
2022-10-23T16:19:14.784Z,83.81
2022-10-23T16:21:42.173Z,83.48
2022-10-23T16:24:10.012Z,83.56
2022-10-23T16:26:38.233Z,82.64
2022-10-23T16:31:42.119Z,83.31
2022-10-23T16:34:10.411Z,83.25
2022-10-23T16:36:40.607Z,82.50
2022-10-23T16:39:16.122Z,82.15
2022-10-23T16:41:43.173Z,82.97
2022-10-23T16:44:10.223Z,83.02
2022-10-23T16:46:38.970Z,83.78
2022-10-23T16:49:08.166Z,82.85
2022-10-23T16:51:35.626Z,82.16
2022-10-23T16:54:05.006Z,80.94
2022-10-23T16:56:32.274Z,81.88
2022-10-23T16:59:02.398Z,81.19
2022-10-23T17:01:31.680Z,80.46
2022-10-23T17:03:59.469Z,80.91
2022-10-23T17:06:32.873Z,80.38
2022-10-23T17:09:01.971Z,81.80
2022-10-23T17:11:37.337Z,80.44
2022-10-23T17:14:15.438Z,81.36
2022-10-23T17:16:47.443Z,81.86
2022-10-23T17:19:33.052Z,81.82
2022-10-23T17:22:10.661Z,83.05
2022-10-23T17:24:40.156Z,82.56
2022-10-23T17:27:07.365Z,83.99
2022-10-23T17:29:35.225Z,83.06
2022-10-23T17:32:02.779Z,81.81
2022-10-23T17:34:30.126Z,81.93
2022-10-23T17:37:02.238Z,82.81
2022-10-23T17:39:30.209Z,83.67
2022-10-23T17:42:00.150Z,82.51
2022-10-23T17:44:29.953Z,83.67
2022-10-23T17:46:57.112Z,84.42
2022-10-23T17:49:25.192Z,83.08
2022-10-23T17:51:55.970Z,82.10
2022-10-23T17:54:24.812Z,82.38
2022-10-23T17:56:51.887Z,81.47
2022-10-23T17:59:19.786Z,81.54
2022-10-23T18:01:48.713Z,80.46
2022-10-23T18:04:19.357Z,81.79
2022-10-23T18:06:53.199Z,83.80
2022-10-23T18:09:22.741Z,86.19
2022-10-23T18:11:52.873Z,84.40
2022-10-23T18:14:21.523Z,82.55
2022-10-23T18:16:52.554Z,81.58
2022-10-23T18:19:20.073Z,81.98
2022-10-23T18:21:48.193Z,84.16
2022-10-23T18:24:16.182Z,83.28
2022-10-23T18:26:43.610Z,83.70
2022-10-23T18:29:14.133Z,81.99
2022-10-23T18:31:41.823Z,83.78
2022-10-23T18:34:22.200Z,82.28
2022-10-23T18:36:51.706Z,81.33
2022-10-23T18:39:22.668Z,80.33
2022-10-23T18:41:55.024Z,80.84
2022-10-23T18:44:23.216Z,79.27
2022-10-23T18:46:51.329Z,81.40
2022-10-23T18:49:22.508Z,81.57
2022-10-23T18:51:50.629Z,82.05
2022-10-23T18:54:19.744Z,80.73
2022-10-23T18:56:47.913Z,81.09
2022-10-23T18:59:20.153Z,81.48
2022-10-23T19:01:47.740Z,79.71
2022-10-23T19:04:17.788Z,80.51
2022-10-23T19:06:46.838Z,82.53
2022-10-23T19:09:14.808Z,82.30
2022-10-23T19:11:43.480Z,81.46
2022-10-23T19:14:10.735Z,81.59
2022-10-23T19:17:04.618Z,80.75
2022-10-23T19:19:48.682Z,81.14
2022-10-23T19:22:17.723Z,82.64
2022-10-23T19:24:51.160Z,82.00
2022-10-23T19:27:19.426Z,82.54
2022-10-23T19:29:50.381Z,80.50
2022-10-23T19:32:17.814Z,80.95
2022-10-23T19:34:45.488Z,81.31
2022-10-23T19:39:45.617Z,81.48
2022-10-23T19:42:14.821Z,80.91
2022-10-23T19:44:41.902Z,82.66
2022-10-23T19:47:09.048Z,83.20
2022-10-23T19:49:36.132Z,83.56
2022-10-23T19:52:03.241Z,82.32
2022-10-23T19:54:31.415Z,82.17
2022-10-23T19:56:58.528Z,83.79
2022-10-23T19:59:25.601Z,85.01
2022-10-23T20:01:52.800Z,85.12
2022-10-23T20:04:20.109Z,84.59
2022-10-23T20:06:49.675Z,83.35
2022-10-23T20:09:17.059Z,84.43
2022-10-23T20:11:45.321Z,84.08
2022-10-23T20:14:13.530Z,83.26
2022-10-23T20:16:42.569Z,84.38
2022-10-23T20:19:15.206Z,84.08
2022-10-23T20:21:46.239Z,84.19
2022-10-23T20:24:16.425Z,83.46
2022-10-23T20:26:46.384Z,84.39
2022-10-23T20:29:14.157Z,84.57
2022-10-23T20:31:43.797Z,84.33
2022-10-23T20:34:12.382Z,82.44
2022-10-23T20:36:47.000Z,82.72
2022-10-23T20:39:26.940Z,82.84
2022-10-23T20:41:57.593Z,82.89
2022-10-23T20:44:29.507Z,82.19
2022-10-23T20:46:57.010Z,82.52
2022-10-23T20:49:24.641Z,82.45
2022-10-23T20:51:56.435Z,83.62
2022-10-23T20:54:28.922Z,83.47
2022-10-23T20:56:58.988Z,82.86
2022-10-23T20:59:26.545Z,83.62
2022-10-23T21:01:55.509Z,84.24
2022-10-23T21:04:27.545Z,85.52
2022-10-23T21:07:09.343Z,85.38
2022-10-23T21:09:38.292Z,83.75
2022-10-23T21:12:06.759Z,83.49
2022-10-23T21:14:35.101Z,83.50
2022-10-23T21:17:04.928Z,84.78
2022-10-23T21:19:32.228Z,83.44
2022-10-23T21:22:00.242Z,84.21
2022-10-23T21:24:27.489Z,85.51
2022-10-23T21:26:54.637Z,85.80
2022-10-23T21:29:22.084Z,85.44
2022-10-23T21:31:58.595Z,84.39
2022-10-23T21:34:26.936Z,85.10
2022-10-23T21:37:11.874Z,86.86
2022-10-23T21:39:40.208Z,88.28
2022-10-23T21:42:07.728Z,85.74
2022-10-23T21:44:35.160Z,84.59
2022-10-23T21:47:02.484Z,84.30
2022-10-23T21:49:32.708Z,86.15
2022-10-23T21:51:59.820Z,86.44
2022-10-23T21:54:26.970Z,86.39
2022-10-23T21:56:54.433Z,86.33
2022-10-23T21:59:29.081Z,85.57
2022-10-23T22:01:59.463Z,85.11
2022-10-23T22:04:26.834Z,84.80
2022-10-23T22:06:54.148Z,85.86
2022-10-23T22:09:22.187Z,86.21
2022-10-23T22:11:51.370Z,85.95
2022-10-23T22:14:22.172Z,86.16
2022-10-23T22:16:55.480Z,85.77
2022-10-23T22:19:23.623Z,85.55
2022-10-23T22:21:51.888Z,86.67
2022-10-23T22:24:19.467Z,86.16
2022-10-23T22:26:51.655Z,85.38
2022-10-23T22:29:25.042Z,86.18
2022-10-23T22:31:52.820Z,86.16
2022-10-23T22:34:48.386Z,86.31
2022-10-23T22:37:14.925Z,86.72
2022-10-23T22:39:44.470Z,86.33
2022-10-23T22:42:11.958Z,86.63
2022-10-23T22:44:39.157Z,87.26
2022-10-23T22:47:08.740Z,87.33
2022-10-23T22:49:35.986Z,87.32
2022-10-23T22:52:03.189Z,87.17
2022-10-23T22:54:33.454Z,86.88
2022-10-23T22:57:00.636Z,87.02
2022-10-23T22:59:27.802Z,87.18
2022-10-23T23:01:55.314Z,87.67
2022-10-23T23:04:38.890Z,87.74
2022-10-23T23:07:09.855Z,86.38
2022-10-23T23:09:40.358Z,86.81
2022-10-23T23:12:10.483Z,87.53
2022-10-23T23:14:41.173Z,89.63
2022-10-23T23:17:09.440Z,89.31
2022-10-23T23:19:36.862Z,88.97
2022-10-23T23:22:04.057Z,89.26
2022-10-23T23:24:32.209Z,89.63
2022-10-23T23:26:59.299Z,90.15
2022-10-23T23:29:27.071Z,89.25
2022-10-23T23:31:54.213Z,88.39
2022-10-23T23:34:21.424Z,89.24
2022-10-23T23:36:48.614Z,89.31
2022-10-23T23:39:15.806Z,90.14
2022-10-23T23:41:45.275Z,90.89
2022-10-23T23:44:12.394Z,90.23
2022-10-23T23:46:39.603Z,89.71
2022-10-23T23:49:06.805Z,90.61
2022-10-23T23:51:33.875Z,89.02
2022-10-23T23:54:03.615Z,88.57
2022-10-23T23:56:32.030Z,87.40
2022-10-23T23:58:59.105Z,86.40
